sensor_id;sensor_type;location;lat;lon;timestamp;pressure;altitude;pressure_sealevel;temperature;humidity
46199;BME280;31928;52.104;10.030;2023-01-28T00:01:16;101758.09;;;6.09;54.27
46199;BME280;31928;52.104;10.030;2023-01-28T00:03:43;101761.56;;;6.10;54.46
46199;BME280;31928;52.104;10.030;2023-01-28T00:06:13;101760.84;;;6.35;55.29
46199;BME280;31928;52.104;10.030;2023-01-28T00:08:40;101763.81;;;6.14;54.19
46199;BME280;31928;52.104;10.030;2023-01-28T00:11:09;101759.31;;;6.15;54.18
46199;BME280;31928;52.104;10.030;2023-01-28T00:13:36;101756.81;;;6.13;53.97
46199;BME280;31928;52.104;10.030;2023-01-28T00:16:04;101757.03;;;6.37;54.76
46199;BME280;31928;52.104;10.030;2023-01-28T00:18:31;101761.09;;;6.41;54.82
46199;BME280;31928;52.104;10.030;2023-01-28T00:21:02;101753.66;;;6.18;53.84
46199;BME280;31928;52.104;10.030;2023-01-28T00:23:34;101760.84;;;6.17;53.46
46199;BME280;31928;52.104;10.030;2023-01-28T00:26:04;101750.78;;;6.11;53.37
46199;BME280;31928;52.104;10.030;2023-01-28T00:28:31;101738.59;;;6.09;53.74
46199;BME280;31928;52.104;10.030;2023-01-28T00:30:58;101744.19;;;6.33;54.58
46199;BME280;31928;52.104;10.030;2023-01-28T00:33:25;101743.81;;;6.10;53.70
46199;BME280;31928;52.104;10.030;2023-01-28T00:36:02;101752.16;;;6.15;54.04
46199;BME280;31928;52.104;10.030;2023-01-28T00:38:28;101749.41;;;6.07;53.90
46199;BME280;31928;52.104;10.030;2023-01-28T00:40:55;101741.41;;;6.07;53.32
46199;BME280;31928;52.104;10.030;2023-01-28T00:43:22;101747.06;;;6.04;53.46
46199;BME280;31928;52.104;10.030;2023-01-28T00:45:48;101755.03;;;6.04;53.30
46199;BME280;31928;52.104;10.030;2023-01-28T00:48:15;101751.56;;;6.04;53.08
46199;BME280;31928;52.104;10.030;2023-01-28T00:50:43;101756.88;;;6.04;53.25
46199;BME280;31928;52.104;10.030;2023-01-28T00:53:11;101758.69;;;6.03;53.28
46199;BME280;31928;52.104;10.030;2023-01-28T00:55:37;101763.19;;;6.03;53.38
46199;BME280;31928;52.104;10.030;2023-01-28T00:58:04;101763.25;;;6.28;54.18
46199;BME280;31928;52.104;10.030;2023-01-28T01:00:30;101763.03;;;6.04;53.13
46199;BME280;31928;52.104;10.030;2023-01-28T01:02:58;101764.97;;;6.02;53.57
46199;BME280;31928;52.104;10.030;2023-01-28T01:05:24;101763.34;;;6.01;53.75
46199;BME280;31928;52.104;10.030;2023-01-28T01:07:51;101760.69;;;6.01;54.00
46199;BME280;31928;52.104;10.030;2023-01-28T01:10:18;101761.66;;;6.00;53.94
46199;BME280;31928;52.104;10.030;2023-01-28T01:12:46;101768.66;;;6.01;54.05
46199;BME280;31928;52.104;10.030;2023-01-28T01:15:13;101769.47;;;6.02;54.28
46199;BME280;31928;52.104;10.030;2023-01-28T01:17:42;101764.16;;;6.02;53.96
46199;BME280;31928;52.104;10.030;2023-01-28T01:20:15;101772.53;;;6.07;54.47
46199;BME280;31928;52.104;10.030;2023-01-28T01:22:42;101774.66;;;6.03;54.34
46199;BME280;31928;52.104;10.030;2023-01-28T01:25:09;101779.81;;;6.05;53.82
46199;BME280;31928;52.104;10.030;2023-01-28T01:27:36;101778.16;;;6.04;53.64
46199;BME280;31928;52.104;10.030;2023-01-28T01:30:03;101772.84;;;6.04;53.43
46199;BME280;31928;52.104;10.030;2023-01-28T01:32:31;101773.13;;;6.01;53.46
46199;BME280;31928;52.104;10.030;2023-01-28T01:34:58;101764.31;;;6.00;53.45
46199;BME280;31928;52.104;10.030;2023-01-28T01:37:24;101766.97;;;6.00;53.44
46199;BME280;31928;52.104;10.030;2023-01-28T01:39:51;101761.81;;;5.99;53.19
46199;BME280;31928;52.104;10.030;2023-01-28T01:42:18;101765.44;;;5.98;53.07
46199;BME280;31928;52.104;10.030;2023-01-28T01:44:58;101765.84;;;6.03;53.69
46199;BME280;31928;52.104;10.030;2023-01-28T01:50:06;101779.34;;;5.92;53.60
46199;BME280;31928;52.104;10.030;2023-01-28T01:52:35;101772.09;;;5.85;53.31
46199;BME280;31928;52.104;10.030;2023-01-28T01:55:05;101767.63;;;5.85;53.34
46199;BME280;31928;52.104;10.030;2023-01-28T01:57:35;101777.06;;;5.80;53.28
46199;BME280;31928;52.104;10.030;2023-01-28T02:00:04;101771.84;;;5.78;53.60
46199;BME280;31928;52.104;10.030;2023-01-28T02:02:36;101773.69;;;5.78;53.61
46199;BME280;31928;52.104;10.030;2023-01-28T02:05:04;101778.56;;;5.73;53.37
46199;BME280;31928;52.104;10.030;2023-01-28T02:07:32;101769.06;;;5.70;53.49
46199;BME280;31928;52.104;10.030;2023-01-28T02:09:59;101777.19;;;5.69;53.85
46199;BME280;31928;52.104;10.030;2023-01-28T02:12:30;101778.56;;;5.73;54.14
46199;BME280;31928;52.104;10.030;2023-01-28T02:15:02;101777.91;;;5.71;54.05
46199;BME280;31928;52.104;10.030;2023-01-28T02:17:30;101783.66;;;5.66;54.03
46199;BME280;31928;52.104;10.030;2023-01-28T02:20:04;101782.38;;;5.70;54.20
46199;BME280;31928;52.104;10.030;2023-01-28T02:30:56;101785.19;;;5.69;54.09
46199;BME280;31928;52.104;10.030;2023-01-28T02:33:46;101776.91;;;5.72;54.21
46199;BME280;31928;52.104;10.030;2023-01-28T02:36:25;101780.59;;;5.61;53.79
46199;BME280;31928;52.104;10.030;2023-01-28T02:38:55;101785.09;;;5.61;54.00
46199;BME280;31928;52.104;10.030;2023-01-28T02:41:27;101782.28;;;5.62;54.26
46199;BME280;31928;52.104;10.030;2023-01-28T02:43:56;101773.91;;;5.57;54.06
46199;BME280;31928;52.104;10.030;2023-01-28T02:49:18;101781.44;;;5.62;54.25
46199;BME280;31928;52.104;10.030;2023-01-28T02:52:24;101786.16;;;5.68;54.45
46199;BME280;31928;52.104;10.030;2023-01-28T02:55:39;101784.78;;;5.64;54.62
46199;BME280;31928;52.104;10.030;2023-01-28T03:06:06;101781.84;;;5.67;54.19
46199;BME280;31928;52.104;10.030;2023-01-28T03:08:51;101782.81;;;5.66;54.46
46199;BME280;31928;52.104;10.030;2023-01-28T03:11:41;101772.09;;;5.58;53.82
46199;BME280;31928;52.104;10.030;2023-01-28T03:14:29;101777.41;;;5.58;54.28
46199;BME280;31928;52.104;10.030;2023-01-28T03:17:24;101775.44;;;5.60;54.20
46199;BME280;31928;52.104;10.030;2023-01-28T03:20:10;101770.56;;;5.55;54.12
46199;BME280;31928;52.104;10.030;2023-01-28T03:23:00;101768.56;;;5.57;54.10
46199;BME280;31928;52.104;10.030;2023-01-28T03:25:48;101782.03;;;5.56;54.26
46199;BME280;31928;52.104;10.030;2023-01-28T03:28:34;101769.69;;;5.55;53.79
46199;BME280;31928;52.104;10.030;2023-01-28T03:31:22;101773.06;;;5.57;54.19
46199;BME280;31928;52.104;10.030;2023-01-28T03:34:09;101771.22;;;5.57;54.01
46199;BME280;31928;52.104;10.030;2023-01-28T03:36:55;101774.75;;;5.58;53.77
46199;BME280;31928;52.104;10.030;2023-01-28T03:39:26;101771.72;;;5.80;54.66
46199;BME280;31928;52.104;10.030;2023-01-28T03:44:26;101770.09;;;5.60;54.11
46199;BME280;31928;52.104;10.030;2023-01-28T03:47:11;101772.91;;;5.58;54.14
46199;BME280;31928;52.104;10.030;2023-01-28T03:49:39;101765.59;;;5.60;54.15
46199;BME280;31928;52.104;10.030;2023-01-28T03:52:07;101776.41;;;5.59;53.80
46199;BME280;31928;52.104;10.030;2023-01-28T03:54:33;101767.44;;;5.60;54.03
46199;BME280;31928;52.104;10.030;2023-01-28T03:57:00;101766.47;;;5.61;53.94
46199;BME280;31928;52.104;10.030;2023-01-28T03:59:27;101770.81;;;5.62;53.31
46199;BME280;31928;52.104;10.030;2023-01-28T04:01:54;101770.81;;;5.62;53.59
46199;BME280;31928;52.104;10.030;2023-01-28T04:04:21;101776.66;;;5.65;53.84
46199;BME280;31928;52.104;10.030;2023-01-28T04:06:51;101770.66;;;5.63;53.46
46199;BME280;31928;52.104;10.030;2023-01-28T04:09:19;101768.81;;;5.64;52.86
46199;BME280;31928;52.104;10.030;2023-01-28T04:11:46;101774.16;;;5.64;51.72
46199;BME280;31928;52.104;10.030;2023-01-28T04:14:13;101777.78;;;5.63;51.42
46199;BME280;31928;52.104;10.030;2023-01-28T04:16:40;101779.47;;;5.64;50.98
46199;BME280;31928;52.104;10.030;2023-01-28T04:19:08;101783.97;;;5.63;51.32
46199;BME280;31928;52.104;10.030;2023-01-28T04:21:35;101786.78;;;5.62;51.66
46199;BME280;31928;52.104;10.030;2023-01-28T04:24:01;101793.75;;;5.63;51.90
46199;BME280;31928;52.104;10.030;2023-01-28T17:27:01;101890.44;;;5.16;49.33
46199;BME280;31928;52.104;10.030;2023-01-28T17:29:28;101900.81;;;5.10;49.54
46199;BME280;31928;52.104;10.030;2023-01-28T17:31:55;101904.28;;;5.29;50.50
46199;BME280;31928;52.104;10.030;2023-01-28T17:34:21;101912.00;;;5.04;49.79
46199;BME280;31928;52.104;10.030;2023-01-28T17:36:48;101915.47;;;5.23;50.30
46199;BME280;31928;52.104;10.030;2023-01-28T17:39:14;101901.09;;;4.97;49.90
46199;BME280;31928;52.104;10.030;2023-01-28T17:41:43;101914.94;;;4.91;49.82
46199;BME280;31928;52.104;10.030;2023-01-28T17:44:15;101905.28;;;4.90;50.18
46199;BME280;31928;52.104;10.030;2023-01-28T17:46:42;101888.25;;;4.83;50.58
46199;BME280;31928;52.104;10.030;2023-01-28T17:49:08;101906.13;;;4.81;50.41
46199;BME280;31928;52.104;10.030;2023-01-28T17:51:35;101895.78;;;4.78;50.75
46199;BME280;31928;52.104;10.030;2023-01-28T17:54:02;101897.72;;;4.76;50.80
46199;BME280;31928;52.104;10.030;2023-01-28T17:56:29;101892.69;;;4.74;50.77
46199;BME280;31928;52.104;10.030;2023-01-28T17:58:58;101894.66;;;4.72;50.79
46199;BME280;31928;52.104;10.030;2023-01-28T18:01:28;101893.53;;;4.65;50.62
46199;BME280;31928;52.104;10.030;2023-01-28T18:03:56;101905.25;;;4.62;50.88
46199;BME280;31928;52.104;10.030;2023-01-28T18:06:23;101896.03;;;4.57;51.07
46199;BME280;31928;52.104;10.030;2023-01-28T18:08:50;101892.66;;;4.55;51.05
46199;BME280;31928;52.104;10.030;2023-01-28T18:11:18;101893.78;;;4.52;50.88
46199;BME280;31928;52.104;10.030;2023-01-28T18:13:44;101897.84;;;4.47;51.21
46199;BME280;31928;52.104;10.030;2023-01-28T18:16:14;101904.97;;;4.46;51.26
46199;BME280;31928;52.104;10.030;2023-01-28T18:18:43;101917.81;;;4.41;51.11
46199;BME280;31928;52.104;10.030;2023-01-28T18:23:50;101918.91;;;4.39;51.38
46199;BME280;31928;52.104;10.030;2023-01-28T18:26:17;101914.16;;;4.33;51.00
46199;BME280;31928;52.104;10.030;2023-01-28T18:28:43;101921.41;;;4.31;51.04
46199;BME280;31928;52.104;10.030;2023-01-28T18:31:10;101923.34;;;4.29;51.12
46199;BME280;31928;52.104;10.030;2023-01-28T18:33:37;101918.31;;;4.26;51.18
46199;BME280;31928;52.104;10.030;2023-01-28T18:36:04;101925.56;;;4.24;51.34
46199;BME280;31928;52.104;10.030;2023-01-28T18:38:31;101937.44;;;4.20;51.27
46199;BME280;31928;52.104;10.030;2023-01-28T18:40:58;101929.75;;;4.17;51.09
46199;BME280;31928;52.104;10.030;2023-01-28T18:43:24;101930.72;;;4.16;51.08
46199;BME280;31928;52.104;10.030;2023-01-28T18:45:51;101941.72;;;4.12;51.31
46199;BME280;31928;52.104;10.030;2023-01-28T18:48:18;101941.16;;;4.08;51.14
46199;BME280;31928;52.104;10.030;2023-01-28T18:50:49;101936.81;;;4.07;51.41
46199;BME280;31928;52.104;10.030;2023-01-28T18:53:16;101931.34;;;3.99;51.02
46199;BME280;31928;52.104;10.030;2023-01-28T18:55:43;101927.28;;;3.95;51.38
46199;BME280;31928;52.104;10.030;2023-01-28T18:58:10;101932.97;;;3.91;50.77
46199;BME280;31928;52.104;10.030;2023-01-28T19:00:37;101929.44;;;4.11;51.11
46199;BME280;31928;52.104;10.030;2023-01-28T19:03:03;101930.72;;;3.86;51.19
46199;BME280;31928;52.104;10.030;2023-01-28T19:05:34;101940.63;;;3.84;51.44
46199;BME280;31928;52.104;10.030;2023-01-28T19:08:08;101934.88;;;3.79;51.56
46199;BME280;31928;52.104;10.030;2023-01-28T19:11:00;101934.81;;;3.70;51.36
46199;BME280;31928;52.104;10.030;2023-01-28T19:13:28;101941.50;;;3.64;51.45
46199;BME280;31928;52.104;10.030;2023-01-28T19:15:54;101938.81;;;3.85;51.37
46199;BME280;31928;52.104;10.030;2023-01-28T19:18:21;101945.38;;;3.60;51.50
46199;BME280;31928;52.104;10.030;2023-01-28T19:20:48;101946.63;;;3.57;51.92
46199;BME280;31928;52.104;10.030;2023-01-28T19:23:14;101942.66;;;3.51;51.76
46199;BME280;31928;52.104;10.030;2023-01-28T19:25:41;101951.69;;;3.49;52.17
46199;BME280;31928;52.104;10.030;2023-01-28T19:28:07;101943.06;;;3.47;52.04
46199;BME280;31928;52.104;10.030;2023-01-28T19:30:35;101951.25;;;3.44;51.88
46199;BME280;31928;52.104;10.030;2023-01-28T19:33:03;101941.88;;;3.40;52.29
46199;BME280;31928;52.104;10.030;2023-01-28T19:35:29;101951.78;;;3.38;52.13
46199;BME280;31928;52.104;10.030;2023-01-28T19:37:56;101949.41;;;3.35;52.14
46199;BME280;31928;52.104;10.030;2023-01-28T19:40:22;101958.31;;;3.34;52.19
46199;BME280;31928;52.104;10.030;2023-01-28T19:42:51;101946.97;;;3.32;52.53
46199;BME280;31928;52.104;10.030;2023-01-28T19:45:18;101947.53;;;3.26;52.53
46199;BME280;31928;52.104;10.030;2023-01-28T19:47:45;101943.31;;;3.23;52.43
46199;BME280;31928;52.104;10.030;2023-01-28T19:50:12;101942.72;;;3.20;52.47
46199;BME280;31928;52.104;10.030;2023-01-28T19:52:39;101943.94;;;3.16;52.40
46199;BME280;31928;52.104;10.030;2023-01-28T19:55:06;101951.16;;;3.14;52.67
46199;BME280;31928;52.104;10.030;2023-01-28T19:57:33;101946.13;;;3.11;52.85
46199;BME280;31928;52.104;10.030;2023-01-28T19:59:59;101947.09;;;3.10;52.52
46199;BME280;31928;52.104;10.030;2023-01-28T20:02:26;101934.81;;;3.09;52.90
46199;BME280;31928;52.104;10.030;2023-01-28T20:04:53;101930.53;;;3.28;52.48
46199;BME280;31928;52.104;10.030;2023-01-28T20:07:26;101930.50;;;3.08;52.74
46199;BME280;31928;52.104;10.030;2023-01-28T20:09:52;101919.31;;;3.04;52.86
46199;BME280;31928;52.104;10.030;2023-01-28T20:12:19;101924.75;;;3.03;52.86
46199;BME280;31928;52.104;10.030;2023-01-28T20:14:45;101912.59;;;3.00;52.90
46199;BME280;31928;52.104;10.030;2023-01-28T20:17:12;101913.56;;;2.99;52.87
46199;BME280;31928;52.104;10.030;2023-01-28T20:19:38;101912.00;;;2.97;52.80
46199;BME280;31928;52.104;10.030;2023-01-28T20:22:05;101906.81;;;2.96;53.11
46199;BME280;31928;52.104;10.030;2023-01-28T20:24:31;101905.13;;;2.95;52.98
46199;BME280;31928;52.104;10.030;2023-01-28T20:26:58;101905.28;;;2.93;52.89
46199;BME280;31928;52.104;10.030;2023-01-28T20:29:25;101903.84;;;2.89;53.25
46199;BME280;31928;52.104;10.030;2023-01-28T20:31:51;101904.81;;;2.88;53.00
46199;BME280;31928;52.104;10.030;2023-01-28T20:34:41;101897.13;;;2.85;53.26
46199;BME280;31928;52.104;10.030;2023-01-28T20:37:07;101899.06;;;2.83;53.20
46199;BME280;31928;52.104;10.030;2023-01-28T20:39:37;101894.00;;;2.80;53.10
46199;BME280;31928;52.104;10.030;2023-01-28T20:42:03;101894.00;;;2.80;53.43
46199;BME280;31928;52.104;10.030;2023-01-28T20:44:31;101892.59;;;2.76;53.25
46199;BME280;31928;52.104;10.030;2023-01-28T20:46:58;101888.97;;;2.77;53.51
46199;BME280;31928;52.104;10.030;2023-01-28T20:49:24;101897.06;;;2.76;53.54
46199;BME280;31928;52.104;10.030;2023-01-28T20:51:53;101887.56;;;2.73;53.38
46199;BME280;31928;52.104;10.030;2023-01-28T20:54:20;101901.75;;;2.72;53.37
46199;BME280;31928;52.104;10.030;2023-01-28T20:56:51;101889.22;;;2.74;53.41
46199;BME280;31928;52.104;10.030;2023-01-28T20:59:18;101900.31;;;2.68;53.47
46199;BME280;31928;52.104;10.030;2023-01-28T21:01:45;101898.63;;;2.67;53.65
46199;BME280;31928;52.104;10.030;2023-01-28T21:04:11;101905.84;;;2.65;53.65
46199;BME280;31928;52.104;10.030;2023-01-28T21:06:38;101904.94;;;2.87;53.24
46199;BME280;31928;52.104;10.030;2023-01-28T21:09:08;101902.25;;;2.66;53.31
46199;BME280;31928;52.104;10.030;2023-01-28T21:11:34;101900.81;;;2.62;53.50
46199;BME280;31928;52.104;10.030;2023-01-28T21:14:01;101905.28;;;2.62;53.29
46199;BME280;31928;52.104;10.030;2023-01-28T21:16:27;101900.13;;;2.60;53.17
46199;BME280;31928;52.104;10.030;2023-01-28T21:18:54;101896.75;;;2.58;53.41
46199;BME280;31928;52.104;10.030;2023-01-28T21:21:23;101899.38;;;2.58;53.33
46199;BME280;31928;52.104;10.030;2023-01-28T21:23:50;101892.66;;;2.54;53.16
46199;BME280;31928;52.104;10.030;2023-01-28T21:26:20;101897.13;;;2.54;53.25
46199;BME280;31928;52.104;10.030;2023-01-28T21:28:47;101892.06;;;2.51;53.16
46199;BME280;31928;52.104;10.030;2023-01-28T21:31:16;101889.41;;;2.51;53.40
46199;BME280;31928;52.104;10.030;2023-01-28T21:33:50;101876.19;;;2.51;53.34
46199;BME280;31928;52.104;10.030;2023-01-28T21:36:17;101881.13;;;2.44;53.34
46199;BME280;31928;52.104;10.030;2023-01-28T21:38:49;101875.59;;;2.47;53.44
46199;BME280;31928;52.104;10.030;2023-01-28T21:41:16;101881.28;;;2.43;53.78
46199;BME280;31928;52.104;10.030;2023-01-28T21:43:42;101874.41;;;2.40;53.63
46199;BME280;31928;52.104;10.030;2023-01-28T21:46:09;101879.72;;;2.40;53.52
46199;BME280;31928;52.104;10.030;2023-01-28T21:48:35;101885.13;;;2.39;53.31
46199;BME280;31928;52.104;10.030;2023-01-28T21:51:06;101879.09;;;2.37;53.57
46199;BME280;31928;52.104;10.030;2023-01-28T21:53:51;101885.50;;;2.35;53.59
46199;BME280;31928;52.104;10.030;2023-01-28T21:56:18;101882.97;;;2.33;53.51
46199;BME280;31928;52.104;10.030;2023-01-28T21:58:44;101885.75;;;2.32;53.66
46199;BME280;31928;52.104;10.030;2023-01-28T22:01:30;101898.28;;;2.30;53.65
46199;BME280;31928;52.104;10.030;2023-01-28T22:03:56;101898.50;;;2.27;53.47
46199;BME280;31928;52.104;10.030;2023-01-28T22:06:23;101888.78;;;2.27;53.77
46199;BME280;31928;52.104;10.030;2023-01-28T22:08:52;101892.13;;;2.29;54.01
46199;BME280;31928;52.104;10.030;2023-01-28T22:11:19;101894.16;;;2.26;54.02
46199;BME280;31928;52.104;10.030;2023-01-28T22:13:46;101898.75;;;2.24;53.68
46199;BME280;31928;52.104;10.030;2023-01-28T22:16:13;101898.75;;;2.24;53.79
46199;BME280;31928;52.104;10.030;2023-01-28T22:18:39;101888.16;;;2.24;53.94
46199;BME280;31928;52.104;10.030;2023-01-28T22:21:09;101890.81;;;2.24;53.90
46199;BME280;31928;52.104;10.030;2023-01-28T22:23:36;101892.03;;;2.20;53.89
46199;BME280;31928;52.104;10.030;2023-01-28T22:26:02;101892.72;;;2.22;54.03
46199;BME280;31928;52.104;10.030;2023-01-28T22:28:29;101894.69;;;2.20;54.10
46199;BME280;31928;52.104;10.030;2023-01-28T22:31:14;101888.16;;;2.24;53.99
46199;BME280;31928;52.104;10.030;2023-01-28T22:33:41;101893.94;;;2.18;53.98
46199;BME280;31928;52.104;10.030;2023-01-28T22:36:12;101888.53;;;2.19;54.15
46199;BME280;31928;52.104;10.030;2023-01-28T22:38:41;101884.31;;;2.17;54.44
46199;BME280;31928;52.104;10.030;2023-01-28T22:41:10;101890.59;;;2.16;54.24
46199;BME280;31928;52.104;10.030;2023-01-28T22:43:37;101889.88;;;2.14;54.47
46199;BME280;31928;52.104;10.030;2023-01-28T22:46:04;101882.88;;;2.13;54.69
46199;BME280;31928;52.104;10.030;2023-01-28T22:48:34;101887.09;;;2.15;54.41
46199;BME280;31928;52.104;10.030;2023-01-28T22:51:03;101884.56;;;2.14;54.97
46199;BME280;31928;52.104;10.030;2023-01-28T22:53:30;101868.00;;;2.12;55.06
46199;BME280;31928;52.104;10.030;2023-01-28T22:55:56;101870.53;;;2.13;55.08
46199;BME280;31928;52.104;10.030;2023-01-28T22:58:23;101874.00;;;2.14;54.84
46199;BME280;31928;52.104;10.030;2023-01-28T23:00:49;101871.34;;;2.14;54.88
46199;BME280;31928;52.104;10.030;2023-01-28T23:03:16;101865.22;;;2.13;54.99
46199;BME280;31928;52.104;10.030;2023-01-28T23:05:42;101866.91;;;2.14;55.13
46199;BME280;31928;52.104;10.030;2023-01-28T23:08:10;101857.16;;;2.15;55.13
46199;BME280;31928;52.104;10.030;2023-01-28T23:10:47;101867.97;;;2.23;54.97
46199;BME280;31928;52.104;10.030;2023-01-28T23:13:18;101860.50;;;2.17;55.16
46199;BME280;31928;52.104;10.030;2023-01-28T23:15:46;101860.75;;;2.14;54.91
46199;BME280;31928;52.104;10.030;2023-01-28T23:18:32;101869.44;;;2.16;54.98
46199;BME280;31928;52.104;10.030;2023-01-28T23:21:18;101865.81;;;2.17;54.85
46199;BME280;31928;52.104;10.030;2023-01-28T23:24:16;101868.91;;;2.22;55.11
46199;BME280;31928;52.104;10.030;2023-01-28T23:26:52;101861.97;;;2.21;55.07
46199;BME280;31928;52.104;10.030;2023-01-28T23:29:20;101866.66;;;2.17;55.08
46199;BME280;31928;52.104;10.030;2023-01-28T23:31:51;101850.66;;;2.19;54.88
46199;BME280;31928;52.104;10.030;2023-01-28T23:34:19;101849.84;;;2.18;54.92
46199;BME280;31928;52.104;10.030;2023-01-28T23:36:46;101844.53;;;2.18;55.16
46199;BME280;31928;52.104;10.030;2023-01-28T23:39:14;101848.03;;;2.19;55.24
46199;BME280;31928;52.104;10.030;2023-01-28T23:41:40;101839.13;;;2.20;55.13
46199;BME280;31928;52.104;10.030;2023-01-28T23:44:07;101843.47;;;2.21;54.79
46199;BME280;31928;52.104;10.030;2023-01-28T23:46:34;101853.06;;;2.22;54.95
46199;BME280;31928;52.104;10.030;2023-01-28T23:49:06;101849.44;;;2.23;55.01
46199;BME280;31928;52.104;10.030;2023-01-28T23:51:34;101844.16;;;2.23;54.83
46199;BME280;31928;52.104;10.030;2023-01-28T23:54:00;101844.09;;;2.44;54.20
46199;BME280;31928;52.104;10.030;2023-01-28T23:56:27;101835.97;;;2.26;54.63
46199;BME280;31928;52.104;10.030;2023-01-28T23:58:55;101830.81;;;2.24;54.77
